Time;durP1;ratioP1;P1;durP2;ratioP2;P2;SDS_P1;SDS_P2;PMS_P1;PMS_P2;Temp;Humidity;BMP_temperature;BMP_pressure;BME280_temperature;BME280_humidity;BME280_pressure;Samples;Min_cycle;Max_cycle;Signal;HPM_P1;HPM_P2
2023/05/26 00:01:28;;;;;;;21.67;4.25;;;9.30;99.90;;;-148.53;100.00;63986.66;5052035;28;20110;-76
2023/05/26 00:03:56;;;;;;;26.63;5.28;;;9.20;99.90;;;-148.53;100.00;63986.66;5052339;28;20095;-75
2023/05/26 00:06:23;;;;;;;;;;;9.10;99.90;;;-148.53;100.00;63986.66;5052630;28;20048;-75
2023/05/26 00:08:49;;;;;;;24.85;4.93;;;8.80;99.90;;;-148.53;100.00;63986.66;5052104;28;19920;-75
2023/05/26 00:11:16;;;;;;;20.02;4.47;;;8.60;99.90;;;-148.53;100.00;63986.66;5055581;28;20052;-75
2023/05/26 00:13:42;;;;;;;30.83;5.43;;;8.40;99.90;;;-148.53;100.00;63986.66;5057246;28;20033;-76
2023/05/26 00:16:11;;;;;;;25.58;4.35;;;8.20;99.90;;;-148.53;100.00;63986.66;5052360;28;20531;-76
2023/05/26 00:18:36;;;;;;;28.55;5.63;;;8.10;99.90;;;-148.53;100.00;63986.66;5051249;28;20110;-76
2023/05/26 00:21:03;;;;;;;32.13;5.30;;;8.00;99.90;;;-148.53;100.00;63986.66;5051795;28;20480;-75
2023/05/26 00:23:29;;;;;;;31.42;5.80;;;8.00;99.90;;;-148.53;100.00;63986.66;5052052;28;20040;-76
2023/05/26 00:25:54;;;;;;;36.00;6.88;;;7.90;99.90;;;-148.53;100.00;63986.66;5067321;28;20044;-76
2023/05/26 00:28:20;;;;;;;32.20;5.50;;;7.90;99.90;;;-148.53;100.00;63986.66;5051754;28;20090;-76
2023/05/26 00:30:46;;;;;;;26.67;5.53;;;7.80;99.90;;;-148.53;100.00;63986.66;5051826;28;20393;-76
2023/05/26 00:33:11;;;;;;;35.63;5.80;;;7.80;99.90;;;-148.53;100.00;63986.66;5051661;28;20445;-76
2023/05/26 00:35:38;;;;;;;31.08;5.30;;;7.90;99.90;;;-148.53;100.00;63986.66;5051326;28;20065;-76
2023/05/26 00:38:06;;;;;;;36.50;5.77;;;7.90;99.90;;;-148.53;100.00;63986.66;5050731;28;20399;-76
2023/05/26 00:40:32;;;;;;;28.27;5.47;;;8.00;99.90;;;-148.53;100.00;63986.66;5055222;28;20286;-76
2023/05/26 00:42:58;;;;;;;31.20;5.93;;;8.00;99.90;;;-148.53;100.00;63986.66;5053563;28;20048;-76
2023/05/26 00:45:24;;;;;;;28.10;5.70;;;8.10;99.90;;;-148.53;100.00;63986.66;5056842;28;20076;-75
2023/05/26 00:47:51;;;;;;;31.00;4.90;;;8.00;99.90;;;-148.53;100.00;63986.66;5051882;28;20115;-76
2023/05/26 00:50:17;;;;;;;36.53;5.20;;;8.10;99.90;;;-148.53;100.00;63986.66;5050302;28;20029;-76
2023/05/26 00:52:44;;;;;;;28.02;5.18;;;8.00;99.90;;;-148.53;100.00;63986.66;5050410;28;20036;-75
2023/05/26 00:55:10;;;;;;;32.97;5.50;;;8.00;99.90;;;-148.53;100.00;63986.66;5057085;28;20044;-76
2023/05/26 00:57:37;;;;;;;30.60;5.15;;;8.00;99.90;;;-148.53;100.00;63986.66;5042508;28;20041;-76
2023/05/26 01:00:08;;;;;;;34.95;6.07;;;8.00;99.90;;;-148.53;100.00;63986.66;5056983;28;20033;-76
2023/05/26 01:02:35;;;;;;;29.70;5.55;;;7.90;99.90;;;-148.53;100.00;63986.66;5062227;28;20049;-76
2023/05/26 01:05:04;;;;;;;21.35;4.85;;;7.80;99.90;;;-148.53;100.00;63986.66;5055835;28;20028;-76
2023/05/26 01:07:30;;;;;;;32.47;5.28;;;7.70;99.90;;;-148.53;100.00;63986.66;5050247;28;20052;-76
2023/05/26 01:09:56;;;;;;;31.05;5.82;;;7.70;99.90;;;-148.53;100.00;63986.66;5051792;28;20041;-75
2023/05/26 01:12:40;;;;;;;29.23;5.43;;;7.60;99.90;;;-148.53;100.00;63986.66;5051899;28;20075;-76
2023/05/26 01:15:15;;;;;;;33.97;5.35;;;7.70;99.90;;;-148.53;100.00;63986.66;5051328;28;20056;-75
2023/05/26 01:18:00;;;;;;;32.20;5.43;;;7.70;99.90;;;-148.53;100.00;63986.66;5051768;28;20129;-76
2023/05/26 01:20:42;;;;;;;34.22;6.05;;;7.60;99.90;;;-148.53;100.00;63986.66;5052118;28;20037;-77
2023/05/26 01:24:01;;;;;;;34.78;5.80;;;7.60;99.90;;;-148.53;100.00;63986.66;5038994;28;20025;-76
2023/05/26 01:26:47;;;;;;;29.77;4.95;;;7.60;99.90;;;-148.53;100.00;63986.66;5062011;28;20120;-76
2023/05/26 01:29:19;;;;;;;30.27;5.25;;;7.60;99.90;;;-148.53;100.00;63986.66;5082598;28;20127;-76
2023/05/26 01:31:45;;;;;;;37.05;5.78;;;7.60;99.90;;;-148.53;100.00;63986.66;5055523;28;20045;-76
2023/05/26 01:34:11;;;;;;;27.00;5.40;;;7.70;99.90;;;-148.53;100.00;63986.66;5060140;28;20051;-76
2023/05/26 01:36:37;;;;;;;36.42;5.50;;;7.70;99.90;;;-148.53;100.00;63986.66;5064931;28;20033;-76
2023/05/26 01:39:04;;;;;;;38.60;6.28;;;7.70;99.90;;;-148.53;100.00;63986.66;5061581;28;20044;-77
2023/05/26 01:41:39;;;;;;;40.90;6.60;;;7.70;99.90;;;-148.53;100.00;63986.66;5068376;28;20066;-76
2023/05/26 01:44:31;;;;;;;32.38;5.30;;;7.50;99.90;;;-148.53;100.00;63986.66;5063369;28;20071;-77
2023/05/26 01:46:57;;;;;;;47.70;6.70;;;7.40;99.90;;;-148.53;100.00;63986.66;5054734;28;20036;-76
2023/05/26 01:49:28;;;;;;;31.00;5.97;;;7.30;99.90;;;-148.53;100.00;63986.66;5056070;28;20041;-77
2023/05/26 01:52:00;;;;;;;39.50;5.95;;;7.20;99.90;;;-148.53;100.00;63986.66;5058074;28;20037;-76
2023/05/26 01:54:33;;;;;;;38.30;6.25;;;7.20;99.90;;;-148.53;100.00;63986.66;5090348;28;20060;-76
2023/05/26 01:57:03;;;;;;;31.17;5.90;;;7.30;99.90;;;-148.53;100.00;63986.66;5062876;28;20048;-78
2023/05/26 01:59:30;;;;;;;32.08;6.05;;;7.30;99.90;;;-148.53;100.00;63986.66;5080986;28;20029;-76
2023/05/26 02:01:56;;;;;;;34.58;6.28;;;7.40;99.90;;;-148.53;100.00;63986.66;5070390;28;20036;-76
2023/05/26 02:04:22;;;;;;;38.50;6.63;;;7.40;99.90;;;-148.53;100.00;63986.66;5062970;28;20033;-77
2023/05/26 02:06:50;;;;;;;29.38;5.20;;;7.30;99.90;;;-148.53;100.00;63986.66;5064206;28;20033;-77
2023/05/26 02:09:16;;;;;;;33.03;5.13;;;7.30;99.90;;;-148.53;100.00;63986.66;5050093;28;20037;-77
2023/05/26 02:11:42;;;;;;;33.28;6.22;;;7.30;99.90;;;-148.53;100.00;63986.66;5055257;28;20195;-76
2023/05/26 02:14:07;;;;;;;23.75;5.70;;;7.30;99.90;;;-148.53;100.00;63986.66;5065680;28;20041;-77
2023/05/26 02:16:34;;;;;;;35.72;6.15;;;7.20;99.90;;;-148.53;100.00;63986.66;5063809;28;20082;-77
2023/05/26 02:19:00;;;;;;;37.40;5.85;;;7.20;99.90;;;-148.53;100.00;63986.66;5054957;28;20037;-77
2023/05/26 02:21:26;;;;;;;41.67;6.35;;;7.10;99.90;;;-148.53;100.00;63986.66;5052929;28;20036;-77
2023/05/26 02:23:54;;;;;;;31.88;6.10;;;7.20;99.90;;;-148.53;100.00;63986.66;5041109;28;20098;-76
2023/05/26 02:26:21;;;;;;;36.58;6.43;;;7.30;99.90;;;-148.53;100.00;63986.66;5056455;28;20547;-77
2023/05/26 02:28:50;;;;;;;45.35;7.22;;;7.20;99.90;;;-148.53;100.00;63986.66;5054137;28;20060;-77
2023/05/26 02:31:16;;;;;;;32.88;7.00;;;7.20;99.90;;;-148.53;100.00;63986.66;5059729;28;20056;-77
2023/05/26 02:33:42;;;;;;;39.38;6.60;;;7.30;99.90;;;-148.53;100.00;63986.66;5063640;28;20123;-76
2023/05/26 02:36:11;;;;;;;30.38;6.20;;;7.40;99.90;;;-148.53;100.00;63986.66;5052723;28;20534;-77
2023/05/26 02:38:36;;;;;;;33.65;5.50;;;7.40;99.90;;;-148.53;100.00;63986.66;5054342;28;20033;-77
2023/05/26 02:41:02;;;;;;;40.85;6.13;;;7.40;99.90;;;-148.53;100.00;63986.66;5054009;28;20040;-76
2023/05/26 02:43:28;;;;;;;29.23;6.88;;;7.40;99.90;;;-148.53;100.00;63986.66;5054385;28;20057;-76
2023/05/26 02:45:53;;;;;;;40.33;5.97;;;7.40;99.90;;;-148.53;100.00;63986.66;5053712;28;20033;-76
2023/05/26 02:48:19;;;;;;;34.58;6.03;;;7.40;99.90;;;-148.53;100.00;63986.66;5053569;28;20141;-77
2023/05/26 02:50:45;;;;;;;44.42;6.82;;;7.40;99.90;;;-148.53;100.00;63986.66;5061456;28;20092;-76
2023/05/26 02:53:12;;;;;;;35.90;5.15;;;7.50;99.90;;;-148.53;100.00;63986.66;5064795;28;20040;-77
2023/05/26 02:55:38;;;;;;;32.97;6.15;;;7.40;99.90;;;-148.53;100.00;63986.66;5067950;28;20043;-77
2023/05/26 02:58:04;;;;;;;32.97;6.50;;;7.40;99.90;;;-148.53;100.00;63986.66;5069018;28;20033;-77
2023/05/26 03:00:30;;;;;;;34.05;5.78;;;7.40;99.90;;;-148.53;100.00;63986.66;5053658;28;20398;-77
2023/05/26 03:02:55;;;;;;;32.53;5.75;;;7.40;99.90;;;-148.53;100.00;63986.66;5053725;28;20048;-77
2023/05/26 03:05:21;;;;;;;31.25;5.78;;;7.40;99.90;;;-148.53;100.00;63986.66;5052765;28;20033;-76
2023/05/26 03:07:47;;;;;;;33.22;6.10;;;7.40;99.90;;;-148.53;100.00;63986.66;5053576;28;20480;-77
2023/05/26 03:10:12;;;;;;;38.92;6.85;;;7.40;99.90;;;-148.53;100.00;63986.66;5051948;28;20405;-77
2023/05/26 03:12:38;;;;;;;31.40;6.75;;;7.30;99.90;;;-148.53;100.00;63986.66;5067713;28;20051;-77
2023/05/26 03:15:05;;;;;;;34.53;7.95;;;7.30;99.90;;;-148.53;100.00;63986.66;5070152;28;20040;-77
2023/05/26 03:17:31;;;;;;;35.17;6.40;;;7.20;99.90;;;-148.53;100.00;63986.66;5055352;28;20106;-77
2023/05/26 03:19:57;;;;;;;31.55;6.25;;;7.20;99.90;;;-148.53;100.00;63986.66;5055977;28;20037;-77
2023/05/26 03:22:25;;;;;;;31.67;6.25;;;7.20;99.90;;;-148.53;100.00;63986.66;5068942;28;20025;-77
2023/05/26 03:24:51;;;;;;;31.13;6.57;;;7.20;99.90;;;-148.53;100.00;63986.66;5039169;28;20087;-77
2023/05/26 03:27:22;;;;;;;34.15;6.03;;;7.20;99.90;;;-148.53;100.00;63986.66;5061790;28;20513;-77
2023/05/26 03:29:48;;;;;;;30.77;5.63;;;7.20;99.90;;;-148.53;100.00;63986.66;5053204;28;20029;-77
2023/05/26 03:32:15;;;;;;;39.47;7.07;;;7.10;99.90;;;-148.53;100.00;63986.66;5068482;28;20033;-77
2023/05/26 03:34:41;;;;;;;33.75;5.88;;;7.10;99.90;;;-148.53;100.00;63986.66;5052923;28;20060;-77
2023/05/26 03:37:07;;;;;;;30.40;6.47;;;7.10;99.90;;;-148.53;100.00;63986.66;5052701;28;20073;-77
2023/05/26 03:39:34;;;;;;;39.92;7.82;;;7.10;99.90;;;-148.53;100.00;63986.66;5052644;28;20029;-77
2023/05/26 03:42:00;;;;;;;37.20;6.45;;;7.10;99.90;;;-148.53;100.00;63986.66;5068016;28;20040;-77
2023/05/26 03:44:28;;;;;;;34.80;6.43;;;7.20;99.90;;;-148.53;100.00;63986.66;5051745;28;20120;-77
2023/05/26 03:46:55;;;;;;;25.15;5.93;;;7.20;99.90;;;-148.53;100.00;63986.66;5064580;28;20052;-76
2023/05/26 03:49:20;;;;;;;38.47;7.20;;;7.20;99.90;;;-148.53;100.00;63986.66;5034892;28;20052;-76
2023/05/26 03:51:46;;;;;;;34.53;7.72;;;7.20;99.90;;;-148.53;100.00;63986.66;5055957;28;20084;-78
2023/05/26 03:54:12;;;;;;;28.63;6.07;;;7.20;99.90;;;-148.53;100.00;63986.66;5053395;28;20028;-77
2023/05/26 03:56:38;;;;;;;35.83;6.68;;;7.20;99.90;;;-148.53;100.00;63986.66;5055793;28;20044;-77
2023/05/26 03:59:04;;;;;;;36.53;6.80;;;7.20;99.90;;;-148.53;100.00;63986.66;5053089;28;20379;-77
2023/05/26 04:01:30;;;;;;;30.75;6.82;;;7.20;99.90;;;-148.53;100.00;63986.66;5052378;28;20094;-78
2023/05/26 04:03:57;;;;;;;34.40;6.40;;;7.30;99.90;;;-148.53;100.00;63986.66;5066575;28;20548;-77
2023/05/26 04:06:25;;;;;;;28.23;6.40;;;7.30;99.90;;;-148.53;100.00;63986.66;5053095;28;20036;-78
2023/05/26 04:08:50;;;;;;;28.93;6.03;;;7.30;99.90;;;-148.53;100.00;63986.66;5051463;28;20048;-78
2023/05/26 04:11:17;;;;;;;36.15;6.40;;;7.30;99.90;;;-148.53;100.00;63986.66;5058985;28;20519;-75
2023/05/26 04:13:44;;;;;;;38.78;6.97;;;7.30;99.90;;;-148.53;100.00;63986.66;5057625;28;20041;-76
2023/05/26 04:16:10;;;;;;;30.80;6.07;;;7.40;99.90;;;-148.53;100.00;63986.66;5052528;28;20085;-77
2023/05/26 04:18:40;;;;;;;35.58;6.57;;;7.50;99.90;;;-148.53;100.00;63986.66;5057701;28;20041;-75
2023/05/26 04:21:08;;;;;;;27.55;6.80;;;7.50;99.90;;;-148.53;100.00;63986.66;5050783;28;20102;-77
2023/05/26 04:23:34;;;;;;;36.08;6.80;;;7.60;99.90;;;-148.53;100.00;63986.66;5056524;28;20037;-78
2023/05/26 04:26:00;;;;;;;29.75;5.90;;;7.60;99.90;;;-148.53;100.00;63986.66;5058916;28;20093;-78
2023/05/26 04:28:48;;;;;;;32.15;6.47;;;7.70;99.90;;;-148.53;100.00;63986.66;5049194;28;20051;-77
2023/05/26 04:31:42;;;;;;;29.58;7.05;;;7.70;99.90;;;-148.53;100.00;63986.66;5051646;28;20036;-76
2023/05/26 04:34:16;;;;;;;23.17;4.93;;;7.70;99.90;;;-148.53;100.00;63986.66;5056152;28;20029;-76
2023/05/26 04:37:04;;;;;;;30.88;6.03;;;7.70;99.90;;;-148.53;100.00;63986.66;5050898;28;20043;-76
2023/05/26 04:39:31;;;;;;;33.08;6.45;;;7.70;99.90;;;-148.53;100.00;63986.66;5052302;28;20094;-76
2023/05/26 04:41:58;;;;;;;31.05;6.80;;;7.70;99.90;;;-148.53;100.00;63986.66;5065051;28;20033;-76
2023/05/26 04:44:24;;;;;;;39.05;7.50;;;7.80;99.90;;;-148.53;100.00;63986.66;5048032;28;20056;-77
2023/05/26 04:46:52;;;;;;;32.28;6.43;;;7.80;99.90;;;-148.53;100.00;63986.66;5088657;28;20024;-75
2023/05/26 04:49:22;;;;;;;31.27;7.32;;;7.80;99.90;;;-148.53;100.00;63986.66;5051224;28;20127;-77
2023/05/26 04:51:54;;;;;;;28.70;7.05;;;7.90;99.90;;;-148.53;100.00;63986.66;5050747;28;20048;-76
2023/05/26 04:54:20;;;;;;;30.20;5.95;;;7.90;99.90;;;-148.53;100.00;63986.66;5084634;28;20036;-77
2023/05/26 04:56:45;;;;;;;35.72;6.15;;;7.90;99.90;;;-148.53;100.00;63986.66;5054119;28;20056;-76
2023/05/26 04:59:13;;;;;;;35.15;7.40;;;8.10;99.90;;;-148.53;100.00;63986.66;5071124;28;20040;-76
2023/05/26 05:01:39;;;;;;;35.33;5.95;;;8.20;99.90;;;-148.53;100.00;63986.66;5066533;28;20037;-79
2023/05/26 05:04:20;;;;;;;36.55;6.95;;;8.20;99.90;;;-148.53;100.00;63986.66;5080898;28;20040;-76
2023/05/26 05:06:52;;;;;;;29.92;5.47;;;8.30;99.90;;;-148.53;100.00;63986.66;5065061;28;20392;-75
2023/05/26 05:09:17;;;;;;;38.95;6.13;;;8.40;99.90;;;-148.53;100.00;63986.66;5056473;28;20043;-75
2023/05/26 05:11:44;;;;;;;27.65;5.68;;;8.40;99.90;;;-148.53;100.00;63986.66;5060215;28;20405;-75
2023/05/26 05:14:12;;;;;;;24.55;5.68;;;8.40;99.90;;;-148.53;100.00;63986.66;5047290;28;20048;-76
2023/05/26 05:16:38;;;;;;;29.58;5.50;;;8.40;99.90;;;-148.53;100.00;63986.66;5052189;28;20045;-76
2023/05/26 05:19:03;;;;;;;23.77;5.28;;;8.40;99.90;;;-148.53;100.00;63986.66;5070429;28;20033;-75
2023/05/26 05:21:31;;;;;;;36.28;6.85;;;8.40;99.90;;;-148.53;100.00;63986.66;5065279;28;20049;-75
2023/05/26 05:23:57;;;;;;;25.15;5.53;;;8.50;99.90;;;-148.53;100.00;63986.66;5054566;28;20043;-76
2023/05/26 05:26:26;;;;;;;32.47;5.55;;;8.60;99.90;;;-148.53;100.00;63986.66;5043075;28;20040;-75
2023/05/26 05:28:52;;;;;;;28.05;6.00;;;8.70;99.90;;;-148.53;100.00;63986.66;5071720;28;20028;-76
2023/05/26 05:31:43;;;;;;;31.75;5.88;;;8.80;99.90;;;-148.53;100.00;63986.66;5056913;28;20057;-76
2023/05/26 05:34:09;;;;;;;28.35;5.80;;;8.80;99.90;;;-148.53;100.00;63986.66;5070677;28;20033;-75
2023/05/26 05:36:35;;;;;;;25.02;5.03;;;8.70;99.90;;;-148.53;100.00;63986.66;5062623;28;20504;-76
2023/05/26 05:39:02;;;;;;;31.92;6.05;;;8.80;99.90;;;-148.53;100.00;63986.66;5048758;28;20123;-76
2023/05/26 05:41:28;;;;;;;23.67;4.70;;;8.70;99.90;;;-148.53;100.00;63986.66;5065452;28;20023;-76
2023/05/26 05:43:56;;;;;;;28.77;4.68;;;8.70;99.90;;;-148.53;100.00;63986.66;5090617;28;20037;-77
2023/05/26 05:46:24;;;;;;;29.00;6.18;;;8.70;99.90;;;-148.53;100.00;63986.66;5074060;28;20029;-77
2023/05/26 05:48:58;;;;;;;30.90;5.35;;;8.70;99.90;;;-148.53;100.00;63986.66;5065490;28;20044;-77
2023/05/26 05:51:37;;;;;;;27.35;5.15;;;8.70;99.90;;;-148.53;100.00;63986.66;5054521;28;20044;-74
2023/05/26 05:54:03;;;;;;;23.52;4.95;;;8.60;99.90;;;-148.53;100.00;63986.66;5055038;28;20349;-74
2023/05/26 05:56:29;;;;;;;31.40;6.22;;;8.60;99.90;;;-148.53;100.00;63986.66;5056459;28;20119;-74
2023/05/26 05:58:58;;;;;;;26.17;4.80;;;8.70;99.90;;;-148.53;100.00;63986.66;5072582;28;20400;-74
2023/05/26 06:01:24;;;;;;;23.48;4.70;;;8.70;99.90;;;-148.53;100.00;63986.66;5061381;28;20028;-74
2023/05/26 06:03:51;;;;;;;21.75;4.93;;;8.90;99.90;;;-148.53;100.00;63986.66;5080696;28;20124;-74
2023/05/26 06:06:16;;;;;;;25.67;4.53;;;9.00;99.90;;;-148.53;100.00;63986.66;5053774;28;20037;-74
2023/05/26 06:08:43;;;;;;;26.58;5.40;;;9.20;99.90;;;-148.53;100.00;63986.66;5052361;28;20059;-74
2023/05/26 06:11:09;;;;;;;26.23;4.90;;;9.20;99.90;;;-148.53;100.00;63986.66;5057545;28;20032;-74
2023/05/26 06:13:39;;;;;;;22.52;4.35;;;9.20;99.90;;;-148.53;100.00;63986.66;5059671;28;20348;-74
2023/05/26 06:16:06;;;;;;;21.30;4.82;;;9.30;99.90;;;-148.53;100.00;63986.66;5059623;28;20029;-74
2023/05/26 06:18:32;;;;;;;24.20;5.90;;;9.30;99.90;;;-148.53;100.00;63986.66;5052836;28;20067;-73
2023/05/26 06:20:57;;;;;;;22.20;5.47;;;9.40;99.90;;;-148.53;100.00;63986.66;5069751;28;20047;-73
2023/05/26 06:23:23;;;;;;;23.42;4.88;;;9.50;99.90;;;-148.53;100.00;63986.66;5052852;28;20039;-73
2023/05/26 06:25:52;;;;;;;24.90;5.03;;;9.60;99.90;;;-148.53;100.00;63986.66;5070089;28;20037;-73
2023/05/26 06:28:20;;;;;;;26.02;5.10;;;9.80;99.90;;;-148.53;100.00;63986.66;5050748;28;20033;-73
2023/05/26 06:30:47;;;;;;;18.95;4.35;;;10.00;99.90;;;-148.53;100.00;63986.66;5057900;28;20114;-73
2023/05/26 06:33:29;;;;;;;21.73;4.47;;;10.20;99.90;;;-148.53;100.00;63986.66;5047754;28;20025;-74
2023/05/26 06:35:57;;;;;;;30.35;4.93;;;10.20;99.90;;;-148.53;100.00;63986.66;5055484;28;20040;-74
2023/05/26 06:38:23;;;;;;;26.95;4.68;;;10.30;99.90;;;-148.53;100.00;63986.66;5039015;28;20393;-73
2023/05/26 06:40:49;;;;;;;24.30;4.45;;;10.30;99.90;;;-148.53;100.00;63986.66;5063409;28;20499;-73
2023/05/26 06:43:15;;;;;;;19.23;5.13;;;10.10;99.90;;;-148.53;100.00;63986.66;5056851;28;20457;-73
2023/05/26 06:45:42;;;;;;;20.65;4.53;;;10.30;99.90;;;-148.53;100.00;63986.66;5053853;28;20083;-73
2023/05/26 06:48:08;;;;;;;19.30;4.55;;;10.40;99.90;;;-148.53;100.00;63986.66;5054064;28;20473;-74
2023/05/26 06:50:38;;;;;;;23.27;4.78;;;10.50;99.90;;;-148.53;100.00;63986.66;5052708;28;20461;-74
2023/05/26 06:53:04;;;;;;;25.42;4.78;;;10.60;99.90;;;-148.53;100.00;63986.66;5053816;28;20029;-74
2023/05/26 06:55:30;;;;;;;25.70;5.30;;;10.60;99.90;;;-148.53;100.00;63986.66;5059219;28;20036;-74
2023/05/26 06:57:56;;;;;;;26.83;5.05;;;10.60;99.90;;;-148.53;100.00;63986.66;5070268;28;20040;-74
2023/05/26 07:00:22;;;;;;;25.13;4.32;;;10.60;99.90;;;-148.53;100.00;63986.66;5064780;28;20124;-74
2023/05/26 07:02:54;;;;;;;24.27;4.78;;;10.80;99.90;;;-148.53;100.00;63986.66;5052334;28;20072;-74
2023/05/26 07:05:24;;;;;;;24.27;5.47;;;10.80;99.90;;;-148.53;100.00;63986.66;5058082;28;20145;-75
2023/05/26 07:07:51;;;;;;;33.17;5.20;;;10.80;99.90;;;-148.53;100.00;63986.66;5074625;28;20025;-74
2023/05/26 07:10:16;;;;;;;29.30;4.88;;;10.90;99.90;;;-148.53;100.00;63986.66;5058285;28;20070;-73
2023/05/26 07:12:42;;;;;;;17.13;4.00;;;11.10;99.90;;;-148.53;100.00;63986.66;5035583;28;20036;-74
2023/05/26 07:15:23;;;;;;;22.55;4.43;;;11.30;99.90;;;-148.53;100.00;63986.66;5051774;28;20598;-74
2023/05/26 07:17:49;;;;;;;27.10;5.10;;;11.10;99.90;;;-148.53;100.00;63986.66;5072100;28;20186;-73
2023/05/26 07:20:15;;;;;;;24.05;4.45;;;11.10;99.90;;;-148.53;100.00;63986.66;5067183;28;20048;-74
2023/05/26 07:22:40;;;;;;;30.25;4.75;;;11.10;99.90;;;-148.53;100.00;63986.66;5063723;28;20028;-74
2023/05/26 07:25:13;;;;;;;22.63;5.10;;;11.10;99.90;;;-148.53;100.00;63986.66;5053598;28;20037;-74
2023/05/26 07:27:45;;;;;;;26.33;4.82;;;11.30;99.90;;;-148.53;100.00;63986.66;5068246;28;20078;-75
2023/05/26 07:30:12;;;;;;;22.05;4.03;;;11.50;99.90;;;-148.53;100.00;63986.66;5065823;28;20038;-76
2023/05/26 07:32:51;;;;;;;;;;;11.60;99.90;;;-148.53;100.00;63986.66;5077912;28;20318;-76
2023/05/26 07:35:17;;;;;;;;;;;11.50;99.90;;;-148.53;100.00;63986.66;5053093;28;19917;-75
2023/05/26 07:37:43;;;;;;;;;;;11.50;99.90;;;-148.53;100.00;63986.66;5053064;28;20312;-75
2023/05/26 07:40:09;;;;;;;;;;;11.50;99.90;;;-148.53;100.00;63986.66;5051829;28;19956;-76
2023/05/26 07:42:35;;;;;;;;;;;11.50;99.90;;;-148.53;100.00;63986.66;5053544;28;19933;-74
2023/05/26 07:45:01;;;;;;;;;;;11.60;99.90;;;-148.53;100.00;63986.66;5042501;28;20363;-74
2023/05/26 07:47:31;;;;;;;;;;;11.90;99.90;;;-148.53;100.00;63986.66;5051906;28;20359;-75
2023/05/26 07:50:00;;;;;;;;;;;12.10;99.90;;;-148.53;100.00;63986.66;5053286;28;19946;-74
2023/05/26 07:52:27;;;;;;;;;;;12.10;99.90;;;-148.53;100.00;63986.66;5038033;28;19921;-74
2023/05/26 07:54:52;;;;;;;;;;;11.90;99.90;;;-148.53;100.00;63986.66;5053018;28;19916;-75
2023/05/26 07:57:18;;;;;;;;;;;11.90;99.90;;;-148.53;100.00;63986.66;5058290;28;19999;-74
2023/05/26 07:59:44;;;;;;;;;;;12.10;99.90;;;-148.53;100.00;63986.66;5053414;28;19947;-73
2023/05/26 08:02:10;;;;;;;;;;;12.10;99.90;;;-148.53;100.00;63986.66;5052839;28;19920;-73
2023/05/26 08:04:37;;;;;;;;;;;12.20;99.90;;;-148.53;100.00;63986.66;5052312;28;20364;-73
2023/05/26 08:07:02;;;;;;;;;;;12.20;99.90;;;-148.53;100.00;63986.66;5051610;28;19923;-73
2023/05/26 08:09:28;;;;;;;;;;;12.30;99.90;;;-148.53;100.00;63986.66;5053021;28;20264;-73
2023/05/26 08:11:54;;;;;;;;;;;12.20;99.90;;;-148.53;100.00;63986.66;5052586;28;20305;-72
2023/05/26 08:14:20;;;;;;;;;;;12.30;99.90;;;-148.53;100.00;63986.66;5056418;28;19940;-73
2023/05/26 08:16:46;;;;;;;;;;;12.40;99.90;;;-148.53;100.00;63986.66;5056335;28;19916;-72
2023/05/26 08:19:11;;;;;;;;;;;12.60;99.90;;;-148.53;100.00;63986.66;5067841;28;19943;-73
2023/05/26 08:21:37;;;;;;;;;;;12.80;99.90;;;-148.53;100.00;63986.66;5056144;28;19913;-73
2023/05/26 08:24:03;;;;;;;;;;;12.80;99.90;;;-148.53;100.00;63986.66;5052554;28;19948;-73
2023/05/26 08:26:28;;;;;;;;;;;12.80;99.90;;;-148.53;100.00;63986.66;5052533;28;19919;-73
2023/05/26 08:28:54;;;;;;;;;;;12.80;99.90;;;-148.53;100.00;63986.66;5057445;28;19970;-73
2023/05/26 08:31:19;;;;;;;;;;;13.00;99.90;;;-148.53;100.00;63986.66;5050848;28;19924;-73
2023/05/26 08:33:45;;;;;;;;;;;13.20;99.90;;;-148.53;100.00;63986.66;5052252;28;19916;-74
2023/05/26 08:36:11;;;;;;;;;;;13.30;99.90;;;-148.53;100.00;63986.66;5056961;28;19966;-73
2023/05/26 08:38:37;;;;;;;;;;;13.10;99.90;;;-148.53;100.00;63986.66;5052412;28;20364;-73
2023/05/26 08:41:04;;;;;;;;;;;13.40;99.90;;;-148.53;100.00;63986.66;5053994;28;20283;-73
2023/05/26 08:43:41;;;;;;;;;;;13.60;99.90;;;-148.53;100.00;63986.66;5054860;28;19976;-73
2023/05/26 08:46:10;;;;;;;;;;;14.10;99.90;;;-148.53;100.00;63986.66;5047100;28;19917;-73
2023/05/26 08:48:38;;;;;;;;;;;14.30;99.90;;;-148.53;100.00;63986.66;5051025;28;20434;-73
2023/05/26 08:51:07;;;;;;;;;;;14.20;99.90;;;-148.53;100.00;63986.66;5051067;28;19943;-74
2023/05/26 08:53:33;;;;;;;;;;;14.40;99.90;;;-148.53;100.00;63986.66;5084192;28;19956;-73
2023/05/26 08:56:00;;;;;;;;;;;14.50;99.90;;;-148.53;100.00;63986.66;5052214;28;20387;-77
2023/05/26 08:58:26;;;;;;;;;;;14.50;99.90;;;-148.53;100.00;63986.66;5051822;28;19928;-73
2023/05/26 09:00:53;;;;;;;;;;;14.30;99.90;;;-148.53;100.00;63986.66;5052046;28;19916;-73
2023/05/26 09:03:19;;;;;;;;;;;14.50;99.90;;;-148.53;100.00;63986.66;5052309;28;20002;-74
2023/05/26 09:05:45;;;;;;;;;;;14.70;99.90;;;-148.53;100.00;63986.66;5054392;28;19916;-75
2023/05/26 09:08:12;;;;;;;;;;;14.80;99.90;;;-148.53;100.00;63986.66;5051857;28;20371;-73
2023/05/26 09:10:38;;;;;;;;;;;14.40;99.90;;;-148.53;100.00;63986.66;5064134;28;19920;-74
2023/05/26 09:13:09;;;;;;;;;;;14.70;99.90;;;-148.53;100.00;63986.66;5068405;28;19923;-76
2023/05/26 09:15:36;;;;;;;;;;;15.00;99.90;;;-148.53;100.00;63986.66;5095808;28;20089;-72
2023/05/26 09:18:04;;;;;;;;;;;15.00;99.90;;;-148.53;100.00;63986.66;5065351;28;20023;-73
2023/05/26 09:20:30;;;;;;;;;;;14.70;99.90;;;-148.53;100.00;63986.66;5090851;28;20283;-72
2023/05/26 09:22:57;;;;;;;;;;;14.50;99.90;;;-148.53;100.00;63986.66;5034454;28;19923;-72
2023/05/26 09:25:33;;;;;;;;;;;14.80;99.90;;;-148.53;100.00;63986.66;5051470;28;19917;-72
2023/05/26 09:28:05;;;;;;;;;;;14.70;99.90;;;-148.53;100.00;63986.66;5069432;28;20026;-72
2023/05/26 09:30:49;;;;;;;;;;;14.60;99.90;;;-148.53;100.00;63986.66;5072746;28;19916;-74
2023/05/26 09:33:16;;;;;;;;;;;14.80;99.90;;;-148.53;100.00;63986.66;5059975;28;19920;-74
2023/05/26 09:35:49;;;;;;;;;;;15.10;99.90;;;-148.53;100.00;63986.66;5051436;28;19973;-75
2023/05/26 09:38:16;;;;;;;;;;;14.90;99.60;;;-148.53;100.00;63986.66;5055762;28;19921;-75
2023/05/26 09:40:42;;;;;;;;;;;14.80;99.90;;;-148.53;100.00;63986.66;5050610;28;19916;-75
2023/05/26 09:43:10;;;;;;;;;;;14.60;99.70;;;-148.53;100.00;63986.66;5056117;28;20344;-77
2023/05/26 09:45:40;;;;;;;;;;;14.90;99.40;;;-148.53;100.00;63986.66;5073008;28;19916;-75
2023/05/26 09:48:08;;;;;;;;;;;15.10;97.00;;;-148.53;100.00;63986.66;5074242;28;19921;-75
2023/05/26 09:50:37;;;;;;;;;;;15.10;96.10;;;-148.53;100.00;63986.66;5057786;28;19925;-76
2023/05/26 09:53:05;;;;;;;;;;;15.30;96.90;;;-148.53;100.00;63986.66;5055956;28;19927;-74
2023/05/26 09:55:33;;;;;;;;;;;15.40;96.50;;;-148.53;100.00;63986.66;5071158;28;20460;-75
2023/05/26 09:58:04;;;;;;;;;;;15.50;96.50;;;-148.53;100.00;63986.66;5065377;28;19916;-74
2023/05/26 10:00:35;;;;;;;;;;;15.50;94.80;;;-148.53;100.00;63986.66;5074612;28;20335;-74
2023/05/26 10:03:05;;;;;;;;;;;15.90;94.30;;;-148.53;100.00;63986.66;5054970;28;19920;-74
2023/05/26 10:05:33;;;;;;;;;;;15.90;92.00;;;-148.53;100.00;63986.66;5092904;28;19970;-75
2023/05/26 10:08:02;;;;;;;;;;;16.10;92.00;;;-148.53;100.00;63986.66;5074772;28;19920;-74
2023/05/26 10:10:30;;;;;;;;;;;16.40;90.90;;;-148.53;100.00;63986.66;5070153;28;19924;-74
2023/05/26 10:12:56;;;;;;;;;;;16.90;90.70;;;-148.53;100.00;63986.66;5071265;28;20395;-76
2023/05/26 10:15:22;;;;;;;;;;;17.30;89.70;;;-148.53;100.00;63986.66;5069670;28;19965;-74
2023/05/26 10:17:49;;;;;;;;;;;;;;;-148.53;100.00;63986.66;5070346;28;19939;-74